sensor_id;sensor_type;location;lat;lon;timestamp;temperature;humidity
16700;DHT22;8466;52.286;21.124;2023-03-01T00:01:49;-3.80;99.90
16700;DHT22;8466;52.286;21.124;2023-03-01T00:04:18;-3.80;99.90
16700;DHT22;8466;52.286;21.124;2023-03-01T00:06:47;-3.90;99.90
16700;DHT22;8466;52.286;21.124;2023-03-01T00:09:15;-3.90;99.90
16700;DHT22;8466;52.286;21.124;2023-03-01T00:11:45;-3.90;99.90
16700;DHT22;8466;52.286;21.124;2023-03-01T00:14:15;-3.90;99.90
16700;DHT22;8466;52.286;21.124;2023-03-01T00:16:45;-3.90;99.90
16700;DHT22;8466;52.286;21.124;2023-03-01T00:19:15;-3.90;99.90
16700;DHT22;8466;52.286;21.124;2023-03-01T00:21:45;-3.90;99.90
16700;DHT22;8466;52.286;21.124;2023-03-01T00:24:14;-3.90;99.90
16700;DHT22;8466;52.286;21.124;2023-03-01T00:26:43;-3.90;99.90
16700;DHT22;8466;52.286;21.124;2023-03-01T00:29:15;-3.90;99.90
16700;DHT22;8466;52.286;21.124;2023-03-01T00:31:43;-3.80;99.90
16700;DHT22;8466;52.286;21.124;2023-03-01T00:34:12;-3.80;99.90
16700;DHT22;8466;52.286;21.124;2023-03-01T00:36:41;-3.80;99.90
16700;DHT22;8466;52.286;21.124;2023-03-01T00:39:13;-3.80;99.90
16700;DHT22;8466;52.286;21.124;2023-03-01T00:41:41;-3.80;99.90
16700;DHT22;8466;52.286;21.124;2023-03-01T00:44:11;-3.90;99.90
16700;DHT22;8466;52.286;21.124;2023-03-01T00:46:41;-3.90;99.90
16700;DHT22;8466;52.286;21.124;2023-03-01T00:49:10;-3.90;99.90
16700;DHT22;8466;52.286;21.124;2023-03-01T00:51:39;-3.90;99.90
16700;DHT22;8466;52.286;21.124;2023-03-01T00:54:08;-3.90;99.90
16700;DHT22;8466;52.286;21.124;2023-03-01T00:56:37;-3.80;99.90
16700;DHT22;8466;52.286;21.124;2023-03-01T00:59:06;-3.90;99.90
16700;DHT22;8466;52.286;21.124;2023-03-01T01:01:34;-3.90;99.90
16700;DHT22;8466;52.286;21.124;2023-03-01T01:04:07;-3.90;99.90
16700;DHT22;8466;52.286;21.124;2023-03-01T01:06:37;-3.90;99.90
16700;DHT22;8466;52.286;21.124;2023-03-01T01:09:07;-3.90;99.90
16700;DHT22;8466;52.286;21.124;2023-03-01T01:11:36;-3.90;99.90
16700;DHT22;8466;52.286;21.124;2023-03-01T01:14:05;-3.90;99.90
16700;DHT22;8466;52.286;21.124;2023-03-01T01:16:34;-3.90;99.90
16700;DHT22;8466;52.286;21.124;2023-03-01T01:19:04;-3.90;99.90
16700;DHT22;8466;52.286;21.124;2023-03-01T01:21:33;-4.00;99.90
16700;DHT22;8466;52.286;21.124;2023-03-01T01:24:03;-4.00;99.90
16700;DHT22;8466;52.286;21.124;2023-03-01T01:26:33;-4.00;99.90
16700;DHT22;8466;52.286;21.124;2023-03-01T01:29:03;-4.00;99.90
16700;DHT22;8466;52.286;21.124;2023-03-01T01:31:33;-4.00;99.90
16700;DHT22;8466;52.286;21.124;2023-03-01T01:34:05;-4.00;99.90
16700;DHT22;8466;52.286;21.124;2023-03-01T01:36:34;-4.00;99.90
16700;DHT22;8466;52.286;21.124;2023-03-01T01:39:03;-4.00;99.90
16700;DHT22;8466;52.286;21.124;2023-03-01T01:41:31;-4.00;99.90
16700;DHT22;8466;52.286;21.124;2023-03-01T01:44:15;-4.00;99.90
16700;DHT22;8466;52.286;21.124;2023-03-01T01:46:47;-4.00;99.90
16700;DHT22;8466;52.286;21.124;2023-03-01T01:49:27;-4.00;99.90
16700;DHT22;8466;52.286;21.124;2023-03-01T01:52:02;-4.00;99.90
16700;DHT22;8466;52.286;21.124;2023-03-01T01:54:39;-4.00;99.90
16700;DHT22;8466;52.286;21.124;2023-03-01T01:57:12;-4.00;99.90
16700;DHT22;8466;52.286;21.124;2023-03-01T01:59:45;-4.00;99.90
16700;DHT22;8466;52.286;21.124;2023-03-01T02:02:14;-4.00;99.90
16700;DHT22;8466;52.286;21.124;2023-03-01T02:04:44;-4.00;99.90
16700;DHT22;8466;52.286;21.124;2023-03-01T02:07:15;-4.00;99.90
16700;DHT22;8466;52.286;21.124;2023-03-01T02:09:48;-4.10;99.90
16700;DHT22;8466;52.286;21.124;2023-03-01T02:12:18;-4.10;99.90
16700;DHT22;8466;52.286;21.124;2023-03-01T02:14:47;-4.00;99.90
16700;DHT22;8466;52.286;21.124;2023-03-01T02:17:17;-4.10;99.90
16700;DHT22;8466;52.286;21.124;2023-03-01T02:19:57;-4.00;99.90
16700;DHT22;8466;52.286;21.124;2023-03-01T02:22:30;-4.00;99.90
16700;DHT22;8466;52.286;21.124;2023-03-01T02:25:12;-4.10;99.90
16700;DHT22;8466;52.286;21.124;2023-03-01T02:27:49;-4.00;99.90
16700;DHT22;8466;52.286;21.124;2023-03-01T02:30:24;-4.00;99.90
16700;DHT22;8466;52.286;21.124;2023-03-01T02:32:55;-4.00;99.90
16700;DHT22;8466;52.286;21.124;2023-03-01T02:35:32;-4.10;99.90
16700;DHT22;8466;52.286;21.124;2023-03-01T02:38:03;-4.10;99.90
16700;DHT22;8466;52.286;21.124;2023-03-01T02:40:34;-4.10;99.90
16700;DHT22;8466;52.286;21.124;2023-03-01T02:43:04;-4.00;99.90
16700;DHT22;8466;52.286;21.124;2023-03-01T02:45:36;-4.00;99.90
16700;DHT22;8466;52.286;21.124;2023-03-01T02:48:05;-4.00;99.90
16700;DHT22;8466;52.286;21.124;2023-03-01T02:50:52;-3.90;99.90
16700;DHT22;8466;52.286;21.124;2023-03-01T02:53:25;-3.90;99.90
16700;DHT22;8466;52.286;21.124;2023-03-01T02:55:57;-3.90;99.90
16700;DHT22;8466;52.286;21.124;2023-03-01T02:58:26;-4.00;99.90
16700;DHT22;8466;52.286;21.124;2023-03-01T03:00:56;-4.00;99.90
16700;DHT22;8466;52.286;21.124;2023-03-01T03:03:28;-4.00;99.90
16700;DHT22;8466;52.286;21.124;2023-03-01T03:05:56;-4.00;99.90
16700;DHT22;8466;52.286;21.124;2023-03-01T03:08:25;-4.00;99.90
16700;DHT22;8466;52.286;21.124;2023-03-01T03:10:54;-4.00;99.90
16700;DHT22;8466;52.286;21.124;2023-03-01T03:13:23;-4.00;99.90
16700;DHT22;8466;52.286;21.124;2023-03-01T03:15:57;-3.90;99.90
16700;DHT22;8466;52.286;21.124;2023-03-01T03:18:25;-3.90;99.90
16700;DHT22;8466;52.286;21.124;2023-03-01T03:20:54;-3.90;99.90
16700;DHT22;8466;52.286;21.124;2023-03-01T03:23:23;-3.80;99.90
16700;DHT22;8466;52.286;21.124;2023-03-01T03:25:52;-3.80;99.90
16700;DHT22;8466;52.286;21.124;2023-03-01T03:28:20;-3.80;99.90
16700;DHT22;8466;52.286;21.124;2023-03-01T03:30:49;-3.70;99.90
16700;DHT22;8466;52.286;21.124;2023-03-01T03:33:19;-3.70;99.90
16700;DHT22;8466;52.286;21.124;2023-03-01T03:35:49;-3.70;99.90
16700;DHT22;8466;52.286;21.124;2023-03-01T03:38:19;-3.60;99.90
16700;DHT22;8466;52.286;21.124;2023-03-01T03:40:51;-3.60;99.90
16700;DHT22;8466;52.286;21.124;2023-03-01T03:43:20;-3.70;99.90
16700;DHT22;8466;52.286;21.124;2023-03-01T03:45:51;-3.60;99.90
16700;DHT22;8466;52.286;21.124;2023-03-01T03:48:23;-3.60;99.90
16700;DHT22;8466;52.286;21.124;2023-03-01T03:50:54;-3.60;99.90
16700;DHT22;8466;52.286;21.124;2023-03-01T03:53:25;-3.60;99.90
16700;DHT22;8466;52.286;21.124;2023-03-01T03:55:54;-3.60;99.90
16700;DHT22;8466;52.286;21.124;2023-03-01T03:58:24;-3.70;99.90
16700;DHT22;8466;52.286;21.124;2023-03-01T04:00:54;-3.70;99.90
16700;DHT22;8466;52.286;21.124;2023-03-01T04:03:26;-3.60;99.90
16700;DHT22;8466;52.286;21.124;2023-03-01T04:05:57;-3.70;99.90
16700;DHT22;8466;52.286;21.124;2023-03-01T04:08:26;-3.60;99.90
16700;DHT22;8466;52.286;21.124;2023-03-01T04:10:59;-3.60;99.90
16700;DHT22;8466;52.286;21.124;2023-03-01T04:13:48;-3.50;99.90
16700;DHT22;8466;52.286;21.124;2023-03-01T04:16:17;-3.50;99.90
16700;DHT22;8466;52.286;21.124;2023-03-01T04:18:47;-3.50;99.90
16700;DHT22;8466;52.286;21.124;2023-03-01T04:21:16;-3.50;99.90
16700;DHT22;8466;52.286;21.124;2023-03-01T04:23:44;-3.50;99.90
16700;DHT22;8466;52.286;21.124;2023-03-01T04:26:13;-3.50;99.90
16700;DHT22;8466;52.286;21.124;2023-03-01T04:28:42;-3.50;99.90
16700;DHT22;8466;52.286;21.124;2023-03-01T04:31:14;-3.50;99.90
16700;DHT22;8466;52.286;21.124;2023-03-01T04:33:48;-3.50;99.90
16700;DHT22;8466;52.286;21.124;2023-03-01T04:36:20;-3.50;99.90
16700;DHT22;8466;52.286;21.124;2023-03-01T04:38:50;-3.50;99.90
16700;DHT22;8466;52.286;21.124;2023-03-01T04:41:20;-3.50;99.90
16700;DHT22;8466;52.286;21.124;2023-03-01T04:43:49;-3.50;99.90
16700;DHT22;8466;52.286;21.124;2023-03-01T04:46:19;-3.40;99.90
16700;DHT22;8466;52.286;21.124;2023-03-01T04:48:49;-3.40;99.90
16700;DHT22;8466;52.286;21.124;2023-03-01T04:51:18;-3.40;99.90
16700;DHT22;8466;52.286;21.124;2023-03-01T04:53:47;-3.50;99.90
16700;DHT22;8466;52.286;21.124;2023-03-01T04:56:16;-3.50;99.90
16700;DHT22;8466;52.286;21.124;2023-03-01T04:58:46;-3.50;99.90
16700;DHT22;8466;52.286;21.124;2023-03-01T05:01:16;-3.50;99.90
16700;DHT22;8466;52.286;21.124;2023-03-01T05:03:46;-3.40;99.90
16700;DHT22;8466;52.286;21.124;2023-03-01T05:06:18;-3.40;99.90
16700;DHT22;8466;52.286;21.124;2023-03-01T05:08:47;-3.40;99.90
16700;DHT22;8466;52.286;21.124;2023-03-01T05:11:15;-3.50;99.90
16700;DHT22;8466;52.286;21.124;2023-03-01T05:13:44;-3.50;99.90
16700;DHT22;8466;52.286;21.124;2023-03-01T05:16:13;-3.50;99.90
16700;DHT22;8466;52.286;21.124;2023-03-01T05:18:42;-3.50;99.90
16700;DHT22;8466;52.286;21.124;2023-03-01T05:21:12;-3.50;99.90
16700;DHT22;8466;52.286;21.124;2023-03-01T05:23:45;-3.50;99.90
16700;DHT22;8466;52.286;21.124;2023-03-01T05:26:15;-3.50;99.90
16700;DHT22;8466;52.286;21.124;2023-03-01T05:29:00;-3.50;99.90
16700;DHT22;8466;52.286;21.124;2023-03-01T05:31:31;-3.50;99.90
16700;DHT22;8466;52.286;21.124;2023-03-01T05:33:59;-3.50;99.90
16700;DHT22;8466;52.286;21.124;2023-03-01T05:36:29;-3.50;99.90
16700;DHT22;8466;52.286;21.124;2023-03-01T05:38:59;-3.40;99.90
16700;DHT22;8466;52.286;21.124;2023-03-01T05:41:28;-3.40;99.90
16700;DHT22;8466;52.286;21.124;2023-03-01T05:43:57;-3.40;99.90
16700;DHT22;8466;52.286;21.124;2023-03-01T05:46:26;-3.40;99.90
16700;DHT22;8466;52.286;21.124;2023-03-01T05:48:56;-3.30;99.90
16700;DHT22;8466;52.286;21.124;2023-03-01T05:51:24;-3.20;99.90
16700;DHT22;8466;52.286;21.124;2023-03-01T05:53:53;-3.20;99.90
16700;DHT22;8466;52.286;21.124;2023-03-01T05:56:23;-3.10;99.90
16700;DHT22;8466;52.286;21.124;2023-03-01T05:58:52;-3.10;99.90
16700;DHT22;8466;52.286;21.124;2023-03-01T06:01:20;-3.00;99.90
16700;DHT22;8466;52.286;21.124;2023-03-01T06:03:49;-2.80;99.90
16700;DHT22;8466;52.286;21.124;2023-03-01T06:06:17;-2.80;99.90
16700;DHT22;8466;52.286;21.124;2023-03-01T06:08:46;-2.70;99.90
16700;DHT22;8466;52.286;21.124;2023-03-01T06:11:15;-2.60;99.90
16700;DHT22;8466;52.286;21.124;2023-03-01T06:13:45;-2.50;99.90
16700;DHT22;8466;52.286;21.124;2023-03-01T06:16:14;-2.30;99.90
16700;DHT22;8466;52.286;21.124;2023-03-01T06:18:43;-2.30;99.90
16700;DHT22;8466;52.286;21.124;2023-03-01T06:21:12;-2.20;99.90
16700;DHT22;8466;52.286;21.124;2023-03-01T06:23:40;-2.10;99.90
16700;DHT22;8466;52.286;21.124;2023-03-01T06:26:09;-2.00;99.90
16700;DHT22;8466;52.286;21.124;2023-03-01T06:28:38;-1.90;99.90
16700;DHT22;8466;52.286;21.124;2023-03-01T06:31:08;-1.90;99.90
16700;DHT22;8466;52.286;21.124;2023-03-01T06:33:37;-1.80;99.90
16700;DHT22;8466;52.286;21.124;2023-03-01T06:36:07;-1.80;99.90
16700;DHT22;8466;52.286;21.124;2023-03-01T06:38:37;-1.70;99.90
16700;DHT22;8466;52.286;21.124;2023-03-01T06:41:07;-1.60;99.90
16700;DHT22;8466;52.286;21.124;2023-03-01T06:43:36;-1.50;99.90
16700;DHT22;8466;52.286;21.124;2023-03-01T06:46:05;-1.50;99.90
16700;DHT22;8466;52.286;21.124;2023-03-01T06:48:35;-1.50;99.90
16700;DHT22;8466;52.286;21.124;2023-03-01T06:51:04;-1.40;99.90
16700;DHT22;8466;52.286;21.124;2023-03-01T06:53:33;-1.30;99.90
16700;DHT22;8466;52.286;21.124;2023-03-01T06:56:02;-1.30;99.90
16700;DHT22;8466;52.286;21.124;2023-03-01T06:58:31;-1.30;99.90
16700;DHT22;8466;52.286;21.124;2023-03-01T07:00:59;-1.20;99.90
16700;DHT22;8466;52.286;21.124;2023-03-01T07:03:32;-1.10;99.90
16700;DHT22;8466;52.286;21.124;2023-03-01T07:06:02;-1.00;99.90
16700;DHT22;8466;52.286;21.124;2023-03-01T07:08:31;-0.90;99.90
16700;DHT22;8466;52.286;21.124;2023-03-01T07:11:00;-0.90;99.90
16700;DHT22;8466;52.286;21.124;2023-03-01T07:13:29;-0.80;99.90
16700;DHT22;8466;52.286;21.124;2023-03-01T07:15:58;-0.70;99.90
16700;DHT22;8466;52.286;21.124;2023-03-01T07:18:26;-0.60;99.90
16700;DHT22;8466;52.286;21.124;2023-03-01T07:20:55;-0.50;99.90
16700;DHT22;8466;52.286;21.124;2023-03-01T07:23:25;-0.40;99.90
16700;DHT22;8466;52.286;21.124;2023-03-01T07:25:54;-0.30;99.90
16700;DHT22;8466;52.286;21.124;2023-03-01T07:28:23;-0.20;99.90
16700;DHT22;8466;52.286;21.124;2023-03-01T07:30:52;-0.20;99.90
16700;DHT22;8466;52.286;21.124;2023-03-01T07:33:21;-0.10;99.90
16700;DHT22;8466;52.286;21.124;2023-03-01T07:35:56;0.00;99.90
16700;DHT22;8466;52.286;21.124;2023-03-01T07:38:26;0.10;99.90
16700;DHT22;8466;52.286;21.124;2023-03-01T07:40:58;0.20;99.90
16700;DHT22;8466;52.286;21.124;2023-03-01T07:43:27;0.30;99.90
16700;DHT22;8466;52.286;21.124;2023-03-01T07:45:58;0.40;99.90
16700;DHT22;8466;52.286;21.124;2023-03-01T07:48:27;0.50;99.90
16700;DHT22;8466;52.286;21.124;2023-03-01T07:50:58;0.60;99.90
16700;DHT22;8466;52.286;21.124;2023-03-01T07:53:28;0.80;99.90
16700;DHT22;8466;52.286;21.124;2023-03-01T07:56:01;1.20;99.90
16700;DHT22;8466;52.286;21.124;2023-03-01T07:58:30;1.50;99.90
16700;DHT22;8466;52.286;21.124;2023-03-01T08:01:01;1.60;99.90
16700;DHT22;8466;52.286;21.124;2023-03-01T08:03:30;1.90;99.90
16700;DHT22;8466;52.286;21.124;2023-03-01T08:06:00;2.00;99.90
16700;DHT22;8466;52.286;21.124;2023-03-01T08:08:30;2.20;99.90
16700;DHT22;8466;52.286;21.124;2023-03-01T08:11:00;2.30;99.90
16700;DHT22;8466;52.286;21.124;2023-03-01T08:13:29;2.40;99.90
16700;DHT22;8466;52.286;21.124;2023-03-01T08:16:01;2.50;99.90
16700;DHT22;8466;52.286;21.124;2023-03-01T08:18:30;2.50;99.90
16700;DHT22;8466;52.286;21.124;2023-03-01T08:21:02;2.50;99.90
16700;DHT22;8466;52.286;21.124;2023-03-01T08:23:35;2.60;99.90
16700;DHT22;8466;52.286;21.124;2023-03-01T08:26:05;2.60;99.90
16700;DHT22;8466;52.286;21.124;2023-03-01T08:28:34;2.70;99.90
16700;DHT22;8466;52.286;21.124;2023-03-01T08:31:03;2.80;99.90
16700;DHT22;8466;52.286;21.124;2023-03-01T08:33:41;2.90;99.90
16700;DHT22;8466;52.286;21.124;2023-03-01T08:36:10;3.00;99.90
16700;DHT22;8466;52.286;21.124;2023-03-01T08:38:40;3.10;99.90
16700;DHT22;8466;52.286;21.124;2023-03-01T08:41:08;3.20;99.90
16700;DHT22;8466;52.286;21.124;2023-03-01T08:43:37;3.30;99.90
16700;DHT22;8466;52.286;21.124;2023-03-01T08:46:05;3.40;99.90
16700;DHT22;8466;52.286;21.124;2023-03-01T08:48:34;3.50;99.90
16700;DHT22;8466;52.286;21.124;2023-03-01T08:51:10;3.60;99.90
16700;DHT22;8466;52.286;21.124;2023-03-01T08:53:41;3.60;99.90
16700;DHT22;8466;52.286;21.124;2023-03-01T08:56:10;3.60;99.90
16700;DHT22;8466;52.286;21.124;2023-03-01T08:58:39;3.60;99.90
16700;DHT22;8466;52.286;21.124;2023-03-01T09:01:08;3.70;99.90
16700;DHT22;8466;52.286;21.124;2023-03-01T09:03:37;3.70;99.90
16700;DHT22;8466;52.286;21.124;2023-03-01T09:06:07;3.80;99.90
16700;DHT22;8466;52.286;21.124;2023-03-01T09:08:37;3.90;99.90
16700;DHT22;8466;52.286;21.124;2023-03-01T09:11:10;4.00;99.90
16700;DHT22;8466;52.286;21.124;2023-03-01T09:13:39;4.10;99.90
16700;DHT22;8466;52.286;21.124;2023-03-01T09:16:11;4.00;99.90
16700;DHT22;8466;52.286;21.124;2023-03-01T09:18:40;4.00;99.90
16700;DHT22;8466;52.286;21.124;2023-03-01T09:21:11;4.00;99.90
16700;DHT22;8466;52.286;21.124;2023-03-01T09:23:41;3.90;99.90
16700;DHT22;8466;52.286;21.124;2023-03-01T09:26:16;3.80;99.90
16700;DHT22;8466;52.286;21.124;2023-03-01T09:28:46;3.80;99.90
16700;DHT22;8466;52.286;21.124;2023-03-01T09:31:17;3.80;99.90
16700;DHT22;8466;52.286;21.124;2023-03-01T09:33:49;3.70;99.90
16700;DHT22;8466;52.286;21.124;2023-03-01T09:36:19;3.80;99.90
16700;DHT22;8466;52.286;21.124;2023-03-01T09:38:48;3.80;99.90
16700;DHT22;8466;52.286;21.124;2023-03-01T09:41:38;3.80;99.90
16700;DHT22;8466;52.286;21.124;2023-03-01T09:44:21;3.80;99.90
16700;DHT22;8466;52.286;21.124;2023-03-01T09:46:55;3.80;99.90
16700;DHT22;8466;52.286;21.124;2023-03-01T09:49:26;3.90;99.90
16700;DHT22;8466;52.286;21.124;2023-03-01T09:52:03;3.90;99.90
16700;DHT22;8466;52.286;21.124;2023-03-01T09:54:36;3.70;99.90
16700;DHT22;8466;52.286;21.124;2023-03-01T09:57:19;4.10;99.90
16700;DHT22;8466;52.286;21.124;2023-03-01T10:00:11;4.10;99.90
16700;DHT22;8466;52.286;21.124;2023-03-01T10:02:45;4.10;99.90
16700;DHT22;8466;52.286;21.124;2023-03-01T10:05:44;4.20;99.90
16700;DHT22;8466;52.286;21.124;2023-03-01T10:08:30;4.20;99.90
16700;DHT22;8466;52.286;21.124;2023-03-01T10:11:13;4.20;99.90
16700;DHT22;8466;52.286;21.124;2023-03-01T10:13:55;4.20;99.90
16700;DHT22;8466;52.286;21.124;2023-03-01T10:16:34;4.20;99.90
16700;DHT22;8466;52.286;21.124;2023-03-01T10:19:11;4.50;99.90
16700;DHT22;8466;52.286;21.124;2023-03-01T10:21:45;4.20;99.90
16700;DHT22;8466;52.286;21.124;2023-03-01T10:24:16;4.30;99.90
16700;DHT22;8466;52.286;21.124;2023-03-01T10:26:54;4.40;99.90
16700;DHT22;8466;52.286;21.124;2023-03-01T10:29:27;4.40;99.90
16700;DHT22;8466;52.286;21.124;2023-03-01T10:31:58;4.40;99.90
16700;DHT22;8466;52.286;21.124;2023-03-01T10:34:29;4.50;99.90
16700;DHT22;8466;52.286;21.124;2023-03-01T10:37:01;4.40;99.90
16700;DHT22;8466;52.286;21.124;2023-03-01T10:39:36;4.60;99.90
16700;DHT22;8466;52.286;21.124;2023-03-01T10:42:19;4.60;99.90
16700;DHT22;8466;52.286;21.124;2023-03-01T10:44:50;4.70;99.90
16700;DHT22;8466;52.286;21.124;2023-03-01T10:47:22;4.80;99.90
16700;DHT22;8466;52.286;21.124;2023-03-01T10:49:54;5.00;99.90
16700;DHT22;8466;52.286;21.124;2023-03-01T10:52:25;5.10;99.90
16700;DHT22;8466;52.286;21.124;2023-03-01T10:54:56;5.20;99.90
16700;DHT22;8466;52.286;21.124;2023-03-01T10:57:33;5.20;99.90
16700;DHT22;8466;52.286;21.124;2023-03-01T11:00:24;5.30;99.90
16700;DHT22;8466;52.286;21.124;2023-03-01T11:03:10;5.30;99.90
16700;DHT22;8466;52.286;21.124;2023-03-01T11:05:58;5.30;99.90
16700;DHT22;8466;52.286;21.124;2023-03-01T11:08:34;5.40;99.90
16700;DHT22;8466;52.286;21.124;2023-03-01T11:11:25;5.50;99.90
16700;DHT22;8466;52.286;21.124;2023-03-01T11:14:01;5.60;99.90
16700;DHT22;8466;52.286;21.124;2023-03-01T11:17:00;5.60;99.90
16700;DHT22;8466;52.286;21.124;2023-03-01T11:19:30;5.70;99.90
16700;DHT22;8466;52.286;21.124;2023-03-01T11:22:02;5.80;99.90
16700;DHT22;8466;52.286;21.124;2023-03-01T11:24:41;5.80;99.90
16700;DHT22;8466;52.286;21.124;2023-03-01T11:27:24;5.70;99.90
16700;DHT22;8466;52.286;21.124;2023-03-01T11:30:00;5.70;99.90
16700;DHT22;8466;52.286;21.124;2023-03-01T11:32:38;5.70;99.90
16700;DHT22;8466;52.286;21.124;2023-03-01T11:35:15;5.80;99.90
16700;DHT22;8466;52.286;21.124;2023-03-01T11:38:02;5.90;99.90
16700;DHT22;8466;52.286;21.124;2023-03-01T11:40:34;6.00;99.90
16700;DHT22;8466;52.286;21.124;2023-03-01T11:43:09;6.00;99.90
16700;DHT22;8466;52.286;21.124;2023-03-01T11:45:49;6.00;99.90
16700;DHT22;8466;52.286;21.124;2023-03-01T11:48:34;6.00;99.90
16700;DHT22;8466;52.286;21.124;2023-03-01T11:51:21;6.00;99.90
16700;DHT22;8466;52.286;21.124;2023-03-01T11:54:03;6.10;99.90
16700;DHT22;8466;52.286;21.124;2023-03-01T11:56:37;6.20;99.90
16700;DHT22;8466;52.286;21.124;2023-03-01T11:59:34;6.30;99.90
16700;DHT22;8466;52.286;21.124;2023-03-01T12:02:27;6.50;99.90
16700;DHT22;8466;52.286;21.124;2023-03-01T12:07:54;6.70;99.90
16700;DHT22;8466;52.286;21.124;2023-03-01T12:10:27;6.70;99.90
16700;DHT22;8466;52.286;21.124;2023-03-01T12:13:14;6.60;99.90
16700;DHT22;8466;52.286;21.124;2023-03-01T12:15:58;6.60;99.90
16700;DHT22;8466;52.286;21.124;2023-03-01T12:18:52;6.70;99.90
16700;DHT22;8466;52.286;21.124;2023-03-01T12:21:42;6.70;99.90
16700;DHT22;8466;52.286;21.124;2023-03-01T12:27:42;6.50;99.90
16700;DHT22;8466;52.286;21.124;2023-03-01T12:30:25;6.60;99.90
16700;DHT22;8466;52.286;21.124;2023-03-01T12:33:08;6.50;99.90
16700;DHT22;8466;52.286;21.124;2023-03-01T12:35:54;6.50;99.90
16700;DHT22;8466;52.286;21.124;2023-03-01T12:38:37;6.50;99.90
16700;DHT22;8466;52.286;21.124;2023-03-01T12:41:32;6.70;99.90
16700;DHT22;8466;52.286;21.124;2023-03-01T12:44:12;6.80;99.90
16700;DHT22;8466;52.286;21.124;2023-03-01T12:47:05;7.00;99.90
16700;DHT22;8466;52.286;21.124;2023-03-01T12:49:38;7.10;99.90
16700;DHT22;8466;52.286;21.124;2023-03-01T12:52:13;7.10;99.90
16700;DHT22;8466;52.286;21.124;2023-03-01T12:54:45;7.10;99.90
16700;DHT22;8466;52.286;21.124;2023-03-01T12:57:18;7.00;99.90
16700;DHT22;8466;52.286;21.124;2023-03-01T13:00:02;6.90;99.90
16700;DHT22;8466;52.286;21.124;2023-03-01T13:02:41;7.00;99.90
16700;DHT22;8466;52.286;21.124;2023-03-01T13:05:24;6.90;99.90
16700;DHT22;8466;52.286;21.124;2023-03-01T13:08:00;6.80;99.90
16700;DHT22;8466;52.286;21.124;2023-03-01T13:10:40;6.90;99.90
16700;DHT22;8466;52.286;21.124;2023-03-01T13:13:18;6.90;99.90
16700;DHT22;8466;52.286;21.124;2023-03-01T13:15:48;6.90;99.90
16700;DHT22;8466;52.286;21.124;2023-03-01T13:18:32;6.90;99.90
16700;DHT22;8466;52.286;21.124;2023-03-01T13:21:04;6.90;99.90
16700;DHT22;8466;52.286;21.124;2023-03-01T13:23:35;6.90;99.90
16700;DHT22;8466;52.286;21.124;2023-03-01T13:26:16;6.90;99.90
16700;DHT22;8466;52.286;21.124;2023-03-01T13:28:48;6.90;99.90
16700;DHT22;8466;52.286;21.124;2023-03-01T13:34:55;6.80;99.90
16700;DHT22;8466;52.286;21.124;2023-03-01T13:37:33;6.80;99.90
16700;DHT22;8466;52.286;21.124;2023-03-01T13:42:53;6.90;99.90
16700;DHT22;8466;52.286;21.124;2023-03-01T13:45:38;6.90;99.90
16700;DHT22;8466;52.286;21.124;2023-03-01T13:48:15;6.90;99.90
16700;DHT22;8466;52.286;21.124;2023-03-01T13:50:48;6.80;99.90
16700;DHT22;8466;52.286;21.124;2023-03-01T13:53:20;6.90;99.90
16700;DHT22;8466;52.286;21.124;2023-03-01T13:55:52;6.90;99.90
16700;DHT22;8466;52.286;21.124;2023-03-01T13:58:28;6.90;99.90
16700;DHT22;8466;52.286;21.124;2023-03-01T14:00:59;6.90;99.90
16700;DHT22;8466;52.286;21.124;2023-03-01T14:03:29;6.90;99.90
16700;DHT22;8466;52.286;21.124;2023-03-01T14:06:02;6.90;99.90
16700;DHT22;8466;52.286;21.124;2023-03-01T14:08:46;6.80;99.90
16700;DHT22;8466;52.286;21.124;2023-03-01T14:11:46;6.70;99.90
16700;DHT22;8466;52.286;21.124;2023-03-01T14:14:45;6.60;99.90
16700;DHT22;8466;52.286;21.124;2023-03-01T14:17:46;6.60;99.90
16700;DHT22;8466;52.286;21.124;2023-03-01T14:20:20;6.60;99.90
16700;DHT22;8466;52.286;21.124;2023-03-01T14:22:51;6.60;99.90
16700;DHT22;8466;52.286;21.124;2023-03-01T14:25:23;6.60;99.90
16700;DHT22;8466;52.286;21.124;2023-03-01T14:28:01;6.70;99.90
16700;DHT22;8466;52.286;21.124;2023-03-01T14:30:36;6.70;99.90
16700;DHT22;8466;52.286;21.124;2023-03-01T14:33:17;6.60;99.90
16700;DHT22;8466;52.286;21.124;2023-03-01T14:35:54;6.50;99.90
16700;DHT22;8466;52.286;21.124;2023-03-01T14:38:29;6.50;99.90
16700;DHT22;8466;52.286;21.124;2023-03-01T14:41:00;6.40;99.90
16700;DHT22;8466;52.286;21.124;2023-03-01T14:43:33;6.30;99.90
16700;DHT22;8466;52.286;21.124;2023-03-01T14:46:03;6.30;99.90
16700;DHT22;8466;52.286;21.124;2023-03-01T14:48:32;6.20;99.90
16700;DHT22;8466;52.286;21.124;2023-03-01T14:51:01;6.40;99.90
16700;DHT22;8466;52.286;21.124;2023-03-01T14:53:33;6.40;99.90
16700;DHT22;8466;52.286;21.124;2023-03-01T14:56:16;6.30;99.90
16700;DHT22;8466;52.286;21.124;2023-03-01T14:58:46;6.20;99.90
16700;DHT22;8466;52.286;21.124;2023-03-01T15:01:21;6.20;99.90
16700;DHT22;8466;52.286;21.124;2023-03-01T15:03:51;6.10;99.90
16700;DHT22;8466;52.286;21.124;2023-03-01T15:06:21;6.00;99.90
16700;DHT22;8466;52.286;21.124;2023-03-01T15:08:52;5.90;99.90
16700;DHT22;8466;52.286;21.124;2023-03-01T15:11:23;6.10;99.90
16700;DHT22;8466;52.286;21.124;2023-03-01T15:13:52;6.10;99.90
16700;DHT22;8466;52.286;21.124;2023-03-01T15:16:23;6.10;99.90
16700;DHT22;8466;52.286;21.124;2023-03-01T15:18:54;6.10;99.90
16700;DHT22;8466;52.286;21.124;2023-03-01T15:21:26;6.00;99.90
16700;DHT22;8466;52.286;21.124;2023-03-01T15:24:00;5.90;99.90
16700;DHT22;8466;52.286;21.124;2023-03-01T15:26:34;5.80;99.90
16700;DHT22;8466;52.286;21.124;2023-03-01T15:29:03;5.80;99.90
16700;DHT22;8466;52.286;21.124;2023-03-01T15:31:36;5.70;99.90
16700;DHT22;8466;52.286;21.124;2023-03-01T15:34:20;5.70;99.90
16700;DHT22;8466;52.286;21.124;2023-03-01T15:36:51;5.80;99.90
16700;DHT22;8466;52.286;21.124;2023-03-01T15:39:35;5.80;99.90
16700;DHT22;8466;52.286;21.124;2023-03-01T15:42:10;5.80;99.90
16700;DHT22;8466;52.286;21.124;2023-03-01T15:44:40;5.80;99.90
16700;DHT22;8466;52.286;21.124;2023-03-01T15:47:30;5.80;99.90
16700;DHT22;8466;52.286;21.124;2023-03-01T15:50:00;5.90;99.90
16700;DHT22;8466;52.286;21.124;2023-03-01T15:52:33;5.90;99.90
16700;DHT22;8466;52.286;21.124;2023-03-01T15:55:15;5.80;99.90
16700;DHT22;8466;52.286;21.124;2023-03-01T15:57:45;5.70;99.90
16700;DHT22;8466;52.286;21.124;2023-03-01T16:00:17;5.50;99.90
16700;DHT22;8466;52.286;21.124;2023-03-01T16:02:47;5.40;99.90
16700;DHT22;8466;52.286;21.124;2023-03-01T16:05:20;5.30;99.90
16700;DHT22;8466;52.286;21.124;2023-03-01T16:07:50;5.10;99.90
16700;DHT22;8466;52.286;21.124;2023-03-01T16:10:20;4.90;99.90
16700;DHT22;8466;52.286;21.124;2023-03-01T16:12:51;4.80;99.90
16700;DHT22;8466;52.286;21.124;2023-03-01T16:15:22;4.60;99.90
16700;DHT22;8466;52.286;21.124;2023-03-01T16:17:57;4.40;99.90
16700;DHT22;8466;52.286;21.124;2023-03-01T16:20:26;4.30;99.90
16700;DHT22;8466;52.286;21.124;2023-03-01T16:23:00;4.20;99.90
16700;DHT22;8466;52.286;21.124;2023-03-01T16:25:29;4.00;99.90
16700;DHT22;8466;52.286;21.124;2023-03-01T16:27:59;3.90;99.90
16700;DHT22;8466;52.286;21.124;2023-03-01T16:30:32;3.70;99.90